sensor_id;sensor_type;location;lat;lon;timestamp;P1;durP1;ratioP1;P2;durP2;ratioP2
20138;SDS011;10230;51.502;10.800;2022-11-15T00:02:01;8.07;;;4.57;;
20138;SDS011;10230;51.502;10.800;2022-11-15T00:04:29;7.43;;;4.80;;
20138;SDS011;10230;51.502;10.800;2022-11-15T00:06:55;7.20;;;4.80;;
20138;SDS011;10230;51.502;10.800;2022-11-15T00:09:21;7.70;;;5.07;;
20138;SDS011;10230;51.502;10.800;2022-11-15T00:11:47;8.63;;;5.07;;
20138;SDS011;10230;51.502;10.800;2022-11-15T00:14:13;6.70;;;4.83;;
20138;SDS011;10230;51.502;10.800;2022-11-15T00:16:39;6.43;;;4.67;;
20138;SDS011;10230;51.502;10.800;2022-11-15T00:19:05;7.13;;;5.37;;
20138;SDS011;10230;51.502;10.800;2022-11-15T00:21:31;6.67;;;4.80;;
20138;SDS011;10230;51.502;10.800;2022-11-15T00:23:58;8.43;;;4.93;;
20138;SDS011;10230;51.502;10.800;2022-11-15T00:26:24;8.77;;;4.87;;
20138;SDS011;10230;51.502;10.800;2022-11-15T00:28:51;7.27;;;4.67;;
20138;SDS011;10230;51.502;10.800;2022-11-15T00:31:17;8.83;;;5.00;;
20138;SDS011;10230;51.502;10.800;2022-11-15T00:33:44;10.10;;;4.97;;
20138;SDS011;10230;51.502;10.800;2022-11-15T00:36:10;6.80;;;4.63;;
20138;SDS011;10230;51.502;10.800;2022-11-15T00:38:37;7.47;;;4.30;;
20138;SDS011;10230;51.502;10.800;2022-11-15T00:41:04;6.23;;;4.77;;
20138;SDS011;10230;51.502;10.800;2022-11-15T00:43:30;6.67;;;4.17;;
20138;SDS011;10230;51.502;10.800;2022-11-15T00:45:56;6.77;;;4.60;;
20138;SDS011;10230;51.502;10.800;2022-11-15T00:48:22;6.83;;;4.47;;
20138;SDS011;10230;51.502;10.800;2022-11-15T00:50:48;6.27;;;4.60;;
20138;SDS011;10230;51.502;10.800;2022-11-15T00:53:14;7.80;;;4.93;;
20138;SDS011;10230;51.502;10.800;2022-11-15T00:55:40;5.93;;;4.30;;
20138;SDS011;10230;51.502;10.800;2022-11-15T00:58:06;7.57;;;5.03;;
20138;SDS011;10230;51.502;10.800;2022-11-15T01:00:32;7.43;;;4.50;;
20138;SDS011;10230;51.502;10.800;2022-11-15T01:02:59;6.87;;;4.23;;
20138;SDS011;10230;51.502;10.800;2022-11-15T01:05:26;6.93;;;4.03;;
20138;SDS011;10230;51.502;10.800;2022-11-15T01:07:52;7.00;;;4.87;;
20138;SDS011;10230;51.502;10.800;2022-11-15T01:10:18;6.97;;;4.07;;
20138;SDS011;10230;51.502;10.800;2022-11-15T01:12:45;7.83;;;5.13;;
20138;SDS011;10230;51.502;10.800;2022-11-15T01:15:11;7.10;;;4.30;;
20138;SDS011;10230;51.502;10.800;2022-11-15T01:17:37;7.57;;;5.40;;
20138;SDS011;10230;51.502;10.800;2022-11-15T01:20:03;7.07;;;4.87;;
20138;SDS011;10230;51.502;10.800;2022-11-15T01:22:29;5.40;;;4.07;;
20138;SDS011;10230;51.502;10.800;2022-11-15T01:24:55;8.87;;;5.40;;
20138;SDS011;10230;51.502;10.800;2022-11-15T01:27:21;9.87;;;5.70;;
20138;SDS011;10230;51.502;10.800;2022-11-15T01:29:47;8.90;;;5.40;;
20138;SDS011;10230;51.502;10.800;2022-11-15T01:32:13;7.33;;;4.77;;
20138;SDS011;10230;51.502;10.800;2022-11-15T01:34:39;7.30;;;4.97;;
20138;SDS011;10230;51.502;10.800;2022-11-15T01:37:06;8.23;;;5.67;;
20138;SDS011;10230;51.502;10.800;2022-11-15T01:39:32;7.87;;;5.20;;
20138;SDS011;10230;51.502;10.800;2022-11-15T01:41:57;8.03;;;5.10;;
20138;SDS011;10230;51.502;10.800;2022-11-15T01:44:40;9.20;;;6.03;;
20138;SDS011;10230;51.502;10.800;2022-11-15T01:47:17;9.30;;;5.30;;
20138;SDS011;10230;51.502;10.800;2022-11-15T01:50:04;6.83;;;5.20;;
20138;SDS011;10230;51.502;10.800;2022-11-15T01:52:31;9.47;;;5.67;;
20138;SDS011;10230;51.502;10.800;2022-11-15T01:55:16;9.03;;;5.67;;
20138;SDS011;10230;51.502;10.800;2022-11-15T01:57:45;8.00;;;4.77;;
20138;SDS011;10230;51.502;10.800;2022-11-15T02:00:12;9.23;;;4.90;;
20138;SDS011;10230;51.502;10.800;2022-11-15T02:02:38;9.47;;;5.80;;
20138;SDS011;10230;51.502;10.800;2022-11-15T02:05:05;11.33;;;5.83;;
20138;SDS011;10230;51.502;10.800;2022-11-15T02:07:31;9.67;;;5.67;;
20138;SDS011;10230;51.502;10.800;2022-11-15T02:09:58;8.13;;;5.00;;
20138;SDS011;10230;51.502;10.800;2022-11-15T02:12:25;9.10;;;4.90;;
20138;SDS011;10230;51.502;10.800;2022-11-15T02:14:52;7.47;;;4.37;;
20138;SDS011;10230;51.502;10.800;2022-11-15T02:20:24;7.93;;;4.50;;
20138;SDS011;10230;51.502;10.800;2022-11-15T02:35:48;7.27;;;4.80;;
20138;SDS011;10230;51.502;10.800;2022-11-15T02:38:21;9.50;;;5.40;;
20138;SDS011;10230;51.502;10.800;2022-11-15T02:43:39;6.70;;;4.40;;
20138;SDS011;10230;51.502;10.800;2022-11-15T02:46:42;7.43;;;4.03;;
20138;SDS011;10230;51.502;10.800;2022-11-15T02:49:29;5.40;;;3.87;;
20138;SDS011;10230;51.502;10.800;2022-11-15T02:51:57;7.57;;;4.80;;
20138;SDS011;10230;51.502;10.800;2022-11-15T02:54:24;8.47;;;5.53;;
20138;SDS011;10230;51.502;10.800;2022-11-15T02:56:51;7.00;;;4.53;;
20138;SDS011;10230;51.502;10.800;2022-11-15T03:07:15;7.67;;;3.83;;
20138;SDS011;10230;51.502;10.800;2022-11-15T03:12:22;7.97;;;4.50;;
20138;SDS011;10230;51.502;10.800;2022-11-15T03:14:51;7.90;;;4.53;;
20138;SDS011;10230;51.502;10.800;2022-11-15T03:17:55;9.07;;;5.00;;
20138;SDS011;10230;51.502;10.800;2022-11-15T03:20:13;7.10;;;4.30;;
20138;SDS011;10230;51.502;10.800;2022-11-15T03:22:41;11.70;;;6.00;;
20138;SDS011;10230;51.502;10.800;2022-11-15T03:25:08;7.43;;;4.53;;
20138;SDS011;10230;51.502;10.800;2022-11-15T03:27:37;7.23;;;4.20;;
20138;SDS011;10230;51.502;10.800;2022-11-15T03:30:05;10.80;;;5.33;;
20138;SDS011;10230;51.502;10.800;2022-11-15T03:32:31;10.63;;;5.80;;
20138;SDS011;10230;51.502;10.800;2022-11-15T03:35:02;8.73;;;5.90;;
20138;SDS011;10230;51.502;10.800;2022-11-15T03:37:32;8.67;;;4.73;;
20138;SDS011;10230;51.502;10.800;2022-11-15T03:39:59;10.97;;;5.87;;
20138;SDS011;10230;51.502;10.800;2022-11-15T03:43:00;8.40;;;4.80;;
20138;SDS011;10230;51.502;10.800;2022-11-15T03:45:27;9.27;;;4.23;;
20138;SDS011;10230;51.502;10.800;2022-11-15T03:50:23;8.97;;;5.27;;
20138;SDS011;10230;51.502;10.800;2022-11-15T03:52:50;8.83;;;5.77;;
20138;SDS011;10230;51.502;10.800;2022-11-15T03:55:17;8.07;;;4.60;;
20138;SDS011;10230;51.502;10.800;2022-11-15T03:57:44;9.23;;;5.60;;
20138;SDS011;10230;51.502;10.800;2022-11-15T04:00:10;8.40;;;5.13;;
20138;SDS011;10230;51.502;10.800;2022-11-15T04:02:36;11.13;;;4.83;;
20138;SDS011;10230;51.502;10.800;2022-11-15T04:05:03;8.73;;;4.77;;
20138;SDS011;10230;51.502;10.800;2022-11-15T04:07:29;8.50;;;5.10;;
20138;SDS011;10230;51.502;10.800;2022-11-15T04:09:55;7.47;;;4.63;;
20138;SDS011;10230;51.502;10.800;2022-11-15T04:12:27;8.30;;;4.33;;
20138;SDS011;10230;51.502;10.800;2022-11-15T04:15:18;6.83;;;4.00;;
20138;SDS011;10230;51.502;10.800;2022-11-15T04:17:50;6.23;;;3.73;;
20138;SDS011;10230;51.502;10.800;2022-11-15T04:23:03;9.67;;;3.93;;
20138;SDS011;10230;51.502;10.800;2022-11-15T04:25:49;6.77;;;4.50;;
20138;SDS011;10230;51.502;10.800;2022-11-15T04:28:15;9.53;;;3.83;;
20138;SDS011;10230;51.502;10.800;2022-11-15T04:30:41;4.97;;;3.70;;
20138;SDS011;10230;51.502;10.800;2022-11-15T04:33:07;7.07;;;3.83;;
20138;SDS011;10230;51.502;10.800;2022-11-15T04:35:33;4.70;;;3.17;;
20138;SDS011;10230;51.502;10.800;2022-11-15T04:38:00;4.10;;;2.90;;
20138;SDS011;10230;51.502;10.800;2022-11-15T04:40:26;7.03;;;4.00;;
20138;SDS011;10230;51.502;10.800;2022-11-15T04:42:52;4.83;;;3.40;;
20138;SDS011;10230;51.502;10.800;2022-11-15T04:45:18;8.60;;;4.13;;
20138;SDS011;10230;51.502;10.800;2022-11-15T04:47:45;5.97;;;3.80;;
20138;SDS011;10230;51.502;10.800;2022-11-15T04:50:12;11.37;;;5.97;;
20138;SDS011;10230;51.502;10.800;2022-11-15T04:52:41;10.60;;;5.03;;
20138;SDS011;10230;51.502;10.800;2022-11-15T04:55:11;6.70;;;3.70;;
20138;SDS011;10230;51.502;10.800;2022-11-15T04:57:37;6.60;;;4.00;;
20138;SDS011;10230;51.502;10.800;2022-11-15T05:00:04;7.17;;;4.00;;
20138;SDS011;10230;51.502;10.800;2022-11-15T05:02:30;7.50;;;3.37;;
20138;SDS011;10230;51.502;10.800;2022-11-15T05:05:17;6.40;;;3.97;;
20138;SDS011;10230;51.502;10.800;2022-11-15T05:07:43;6.17;;;3.37;;
20138;SDS011;10230;51.502;10.800;2022-11-15T05:10:09;6.03;;;3.70;;
20138;SDS011;10230;51.502;10.800;2022-11-15T05:12:35;5.57;;;3.40;;
20138;SDS011;10230;51.502;10.800;2022-11-15T05:15:01;5.47;;;4.03;;
20138;SDS011;10230;51.502;10.800;2022-11-15T05:17:27;6.50;;;3.80;;
20138;SDS011;10230;51.502;10.800;2022-11-15T05:19:53;5.03;;;3.77;;
20138;SDS011;10230;51.502;10.800;2022-11-15T05:22:19;6.87;;;3.83;;
20138;SDS011;10230;51.502;10.800;2022-11-15T05:24:45;8.97;;;4.27;;
20138;SDS011;10230;51.502;10.800;2022-11-15T05:27:11;6.50;;;4.33;;
20138;SDS011;10230;51.502;10.800;2022-11-15T05:29:37;7.90;;;3.97;;
20138;SDS011;10230;51.502;10.800;2022-11-15T05:32:04;5.50;;;3.30;;
20138;SDS011;10230;51.502;10.800;2022-11-15T05:34:30;5.30;;;3.43;;
20138;SDS011;10230;51.502;10.800;2022-11-15T05:36:56;6.27;;;4.10;;
20138;SDS011;10230;51.502;10.800;2022-11-15T05:39:22;7.03;;;4.57;;
20138;SDS011;10230;51.502;10.800;2022-11-15T05:41:52;6.80;;;4.30;;
20138;SDS011;10230;51.502;10.800;2022-11-15T05:44:19;7.10;;;3.60;;
20138;SDS011;10230;51.502;10.800;2022-11-15T05:46:46;7.03;;;3.73;;
20138;SDS011;10230;51.502;10.800;2022-11-15T05:49:14;7.30;;;3.10;;
20138;SDS011;10230;51.502;10.800;2022-11-15T05:51:41;5.20;;;3.00;;
20138;SDS011;10230;51.502;10.800;2022-11-15T05:54:10;7.13;;;4.27;;
20138;SDS011;10230;51.502;10.800;2022-11-15T05:56:36;7.00;;;3.73;;
20138;SDS011;10230;51.502;10.800;2022-11-15T05:59:03;6.30;;;3.70;;
20138;SDS011;10230;51.502;10.800;2022-11-15T06:01:29;7.33;;;4.17;;
20138;SDS011;10230;51.502;10.800;2022-11-15T06:03:55;7.50;;;4.17;;
20138;SDS011;10230;51.502;10.800;2022-11-15T06:06:21;5.23;;;3.87;;
20138;SDS011;10230;51.502;10.800;2022-11-15T06:08:47;9.10;;;5.23;;
20138;SDS011;10230;51.502;10.800;2022-11-15T06:11:13;7.17;;;4.47;;
20138;SDS011;10230;51.502;10.800;2022-11-15T06:13:39;8.13;;;4.50;;
20138;SDS011;10230;51.502;10.800;2022-11-15T06:16:05;10.13;;;5.00;;
20138;SDS011;10230;51.502;10.800;2022-11-15T06:18:32;6.97;;;4.30;;
20138;SDS011;10230;51.502;10.800;2022-11-15T06:20:59;6.23;;;4.33;;
20138;SDS011;10230;51.502;10.800;2022-11-15T06:23:25;6.47;;;3.73;;
20138;SDS011;10230;51.502;10.800;2022-11-15T06:25:51;6.43;;;3.97;;
20138;SDS011;10230;51.502;10.800;2022-11-15T06:28:17;5.83;;;3.33;;
20138;SDS011;10230;51.502;10.800;2022-11-15T06:30:43;6.40;;;4.13;;
20138;SDS011;10230;51.502;10.800;2022-11-15T06:33:09;7.47;;;4.07;;
20138;SDS011;10230;51.502;10.800;2022-11-15T06:35:35;9.27;;;4.10;;
20138;SDS011;10230;51.502;10.800;2022-11-15T06:38:03;8.20;;;4.40;;
20138;SDS011;10230;51.502;10.800;2022-11-15T06:40:29;8.40;;;4.53;;
20138;SDS011;10230;51.502;10.800;2022-11-15T06:42:58;9.20;;;5.03;;
20138;SDS011;10230;51.502;10.800;2022-11-15T06:45:24;6.57;;;4.17;;
20138;SDS011;10230;51.502;10.800;2022-11-15T06:47:50;10.87;;;4.60;;
20138;SDS011;10230;51.502;10.800;2022-11-15T06:50:16;6.70;;;4.07;;
20138;SDS011;10230;51.502;10.800;2022-11-15T06:52:43;7.33;;;5.00;;
20138;SDS011;10230;51.502;10.800;2022-11-15T06:55:09;6.87;;;4.30;;
20138;SDS011;10230;51.502;10.800;2022-11-15T06:57:35;7.67;;;5.10;;
20138;SDS011;10230;51.502;10.800;2022-11-15T07:00:02;8.47;;;4.60;;
20138;SDS011;10230;51.502;10.800;2022-11-15T07:02:28;7.23;;;4.63;;
20138;SDS011;10230;51.502;10.800;2022-11-15T07:04:54;7.13;;;4.80;;
20138;SDS011;10230;51.502;10.800;2022-11-15T07:07:20;7.73;;;5.10;;
20138;SDS011;10230;51.502;10.800;2022-11-15T07:09:46;9.13;;;4.27;;
20138;SDS011;10230;51.502;10.800;2022-11-15T07:12:11;8.37;;;5.43;;
20138;SDS011;10230;51.502;10.800;2022-11-15T07:14:37;6.37;;;4.33;;
20138;SDS011;10230;51.502;10.800;2022-11-15T07:17:04;6.03;;;3.93;;
20138;SDS011;10230;51.502;10.800;2022-11-15T07:19:30;7.47;;;4.03;;
20138;SDS011;10230;51.502;10.800;2022-11-15T07:21:56;4.67;;;3.50;;
20138;SDS011;10230;51.502;10.800;2022-11-15T07:24:22;5.30;;;3.77;;
20138;SDS011;10230;51.502;10.800;2022-11-15T07:26:48;5.77;;;3.70;;
20138;SDS011;10230;51.502;10.800;2022-11-15T07:29:14;8.27;;;4.97;;
20138;SDS011;10230;51.502;10.800;2022-11-15T07:31:40;10.23;;;5.35;;
20138;SDS011;10230;51.502;10.800;2022-11-15T07:34:06;8.65;;;5.38;;
20138;SDS011;10230;51.502;10.800;2022-11-15T07:36:33;9.60;;;6.45;;
20138;SDS011;10230;51.502;10.800;2022-11-15T07:38:59;8.80;;;5.17;;
20138;SDS011;10230;51.502;10.800;2022-11-15T07:41:25;11.95;;;6.38;;
20138;SDS011;10230;51.502;10.800;2022-11-15T07:43:51;12.40;;;6.40;;
20138;SDS011;10230;51.502;10.800;2022-11-15T07:46:17;7.60;;;4.03;;
20138;SDS011;10230;51.502;10.800;2022-11-15T07:48:43;6.30;;;3.97;;
20138;SDS011;10230;51.502;10.800;2022-11-15T07:51:13;8.65;;;3.78;;
20138;SDS011;10230;51.502;10.800;2022-11-15T07:53:39;6.88;;;4.68;;
20138;SDS011;10230;51.502;10.800;2022-11-15T07:56:06;5.18;;;3.75;;
20138;SDS011;10230;51.502;10.800;2022-11-15T07:58:32;6.18;;;3.80;;
20138;SDS011;10230;51.502;10.800;2022-11-15T08:01:01;7.07;;;3.95;;
20138;SDS011;10230;51.502;10.800;2022-11-15T08:03:27;4.30;;;3.00;;
20138;SDS011;10230;51.502;10.800;2022-11-15T08:05:53;4.47;;;3.47;;
20138;SDS011;10230;51.502;10.800;2022-11-15T08:08:19;5.70;;;3.67;;
20138;SDS011;10230;51.502;10.800;2022-11-15T08:10:45;4.97;;;3.85;;
20138;SDS011;10230;51.502;10.800;2022-11-15T08:13:11;4.38;;;3.38;;
20138;SDS011;10230;51.502;10.800;2022-11-15T08:15:38;4.30;;;3.58;;
20138;SDS011;10230;51.502;10.800;2022-11-15T08:18:05;3.75;;;3.40;;
20138;SDS011;10230;51.502;10.800;2022-11-15T08:20:31;6.20;;;4.32;;
20138;SDS011;10230;51.502;10.800;2022-11-15T08:22:58;4.43;;;4.03;;
20138;SDS011;10230;51.502;10.800;2022-11-15T08:25:24;5.28;;;4.15;;
20138;SDS011;10230;51.502;10.800;2022-11-15T08:27:53;4.20;;;3.78;;
20138;SDS011;10230;51.502;10.800;2022-11-15T08:30:24;4.53;;;3.63;;
20138;SDS011;10230;51.502;10.800;2022-11-15T08:32:51;5.15;;;3.10;;
20138;SDS011;10230;51.502;10.800;2022-11-15T08:35:18;3.92;;;3.35;;
20138;SDS011;10230;51.502;10.800;2022-11-15T08:37:44;3.88;;;3.17;;
20138;SDS011;10230;51.502;10.800;2022-11-15T08:40:11;3.63;;;3.22;;
20138;SDS011;10230;51.502;10.800;2022-11-15T08:42:38;3.53;;;2.72;;
20138;SDS011;10230;51.502;10.800;2022-11-15T08:45:04;4.05;;;3.25;;
20138;SDS011;10230;51.502;10.800;2022-11-15T08:47:30;3.67;;;3.08;;
20138;SDS011;10230;51.502;10.800;2022-11-15T08:49:56;3.35;;;3.05;;
20138;SDS011;10230;51.502;10.800;2022-11-15T08:52:22;3.83;;;3.13;;
20138;SDS011;10230;51.502;10.800;2022-11-15T08:54:48;2.67;;;2.45;;
20138;SDS011;10230;51.502;10.800;2022-11-15T08:57:14;3.67;;;2.97;;
20138;SDS011;10230;51.502;10.800;2022-11-15T08:59:40;5.00;;;2.47;;
20138;SDS011;10230;51.502;10.800;2022-11-15T09:02:10;3.30;;;2.90;;
20138;SDS011;10230;51.502;10.800;2022-11-15T09:04:39;4.55;;;3.10;;
20138;SDS011;10230;51.502;10.800;2022-11-15T09:07:05;4.43;;;2.60;;
20138;SDS011;10230;51.502;10.800;2022-11-15T09:09:30;3.83;;;2.60;;
20138;SDS011;10230;51.502;10.800;2022-11-15T09:11:56;3.75;;;2.80;;
20138;SDS011;10230;51.502;10.800;2022-11-15T09:14:21;3.08;;;2.80;;
20138;SDS011;10230;51.502;10.800;2022-11-15T09:16:47;3.55;;;3.00;;
20138;SDS011;10230;51.502;10.800;2022-11-15T09:19:13;3.00;;;2.65;;
20138;SDS011;10230;51.502;10.800;2022-11-15T09:21:39;3.08;;;2.63;;
20138;SDS011;10230;51.502;10.800;2022-11-15T09:24:05;3.05;;;2.63;;
20138;SDS011;10230;51.502;10.800;2022-11-15T09:26:31;3.42;;;2.53;;
20138;SDS011;10230;51.502;10.800;2022-11-15T09:28:56;5.45;;;3.90;;
20138;SDS011;10230;51.502;10.800;2022-11-15T09:31:22;3.13;;;2.83;;
20138;SDS011;10230;51.502;10.800;2022-11-15T09:33:47;3.72;;;2.47;;
20138;SDS011;10230;51.502;10.800;2022-11-15T09:36:13;3.20;;;2.38;;
20138;SDS011;10230;51.502;10.800;2022-11-15T09:38:39;3.15;;;2.85;;
20138;SDS011;10230;51.502;10.800;2022-11-15T09:44:02;2.15;;;1.95;;
20138;SDS011;10230;51.502;10.800;2022-11-15T09:49:34;4.00;;;3.00;;
20138;SDS011;10230;51.502;10.800;2022-11-15T09:51:59;3.38;;;2.33;;
20138;SDS011;10230;51.502;10.800;2022-11-15T09:54:30;3.60;;;2.47;;
20138;SDS011;10230;51.502;10.800;2022-11-15T09:57:02;3.40;;;3.10;;
20138;SDS011;10230;51.502;10.800;2022-11-15T09:59:39;3.10;;;2.80;;
20138;SDS011;10230;51.502;10.800;2022-11-15T10:04:50;4.72;;;3.70;;
20138;SDS011;10230;51.502;10.800;2022-11-15T10:12:31;3.55;;;2.67;;
20138;SDS011;10230;51.502;10.800;2022-11-15T10:15:02;2.75;;;2.50;;
20138;SDS011;10230;51.502;10.800;2022-11-15T10:20:29;3.35;;;2.70;;
20138;SDS011;10230;51.502;10.800;2022-11-15T10:22:56;2.60;;;2.40;;
20138;SDS011;10230;51.502;10.800;2022-11-15T10:25:26;3.40;;;2.67;;
20138;SDS011;10230;51.502;10.800;2022-11-15T10:27:57;3.42;;;3.10;;
20138;SDS011;10230;51.502;10.800;2022-11-15T10:30:28;3.30;;;2.88;;
20138;SDS011;10230;51.502;10.800;2022-11-15T10:32:55;2.60;;;2.40;;
20138;SDS011;10230;51.502;10.800;2022-11-15T10:35:29;2.65;;;2.45;;
20138;SDS011;10230;51.502;10.800;2022-11-15T10:38:13;3.80;;;2.60;;
20138;SDS011;10230;51.502;10.800;2022-11-15T10:40:40;2.65;;;2.45;;
20138;SDS011;10230;51.502;10.800;2022-11-15T10:45:37;4.15;;;3.20;;
20138;SDS011;10230;51.502;10.800;2022-11-15T10:50:39;3.00;;;2.65;;
20138;SDS011;10230;51.502;10.800;2022-11-15T10:53:12;3.13;;;2.65;;
20138;SDS011;10230;51.502;10.800;2022-11-15T10:55:41;3.45;;;2.53;;
20138;SDS011;10230;51.502;10.800;2022-11-15T11:00:56;2.42;;;2.15;;
20138;SDS011;10230;51.502;10.800;2022-11-15T11:03:35;2.70;;;2.50;;
20138;SDS011;10230;51.502;10.800;2022-11-15T11:06:05;3.30;;;2.33;;
20138;SDS011;10230;51.502;10.800;2022-11-15T11:08:38;5.05;;;2.22;;
20138;SDS011;10230;51.502;10.800;2022-11-15T11:11:04;5.80;;;2.35;;
20138;SDS011;10230;51.502;10.800;2022-11-15T11:45:17;2.22;;;1.90;;
20138;SDS011;10230;51.502;10.800;2022-11-15T11:52:39;2.95;;;2.08;;
20138;SDS011;10230;51.502;10.800;2022-11-15T11:58:12;4.30;;;2.47;;
20138;SDS011;10230;51.502;10.800;2022-11-15T12:00:29;2.50;;;1.85;;
20138;SDS011;10230;51.502;10.800;2022-11-15T12:05:27;2.78;;;2.15;;
20138;SDS011;10230;51.502;10.800;2022-11-15T12:07:56;3.70;;;2.08;;
20138;SDS011;10230;51.502;10.800;2022-11-15T12:10:29;3.05;;;2.20;;
20138;SDS011;10230;51.502;10.800;2022-11-15T12:13:02;4.53;;;2.05;;
20138;SDS011;10230;51.502;10.800;2022-11-15T12:15:36;5.32;;;3.22;;
20138;SDS011;10230;51.502;10.800;2022-11-15T12:18:07;2.97;;;2.17;;
20138;SDS011;10230;51.502;10.800;2022-11-15T12:20:39;7.82;;;2.60;;
20138;SDS011;10230;51.502;10.800;2022-11-15T12:30:54;2.67;;;2.03;;
20138;SDS011;10230;51.502;10.800;2022-11-15T12:36:00;12.05;;;3.22;;
20138;SDS011;10230;51.502;10.800;2022-11-15T12:41:12;4.45;;;2.30;;
20138;SDS011;10230;51.502;10.800;2022-11-15T12:43:39;4.30;;;2.40;;
20138;SDS011;10230;51.502;10.800;2022-11-15T12:46:09;4.80;;;2.42;;
20138;SDS011;10230;51.502;10.800;2022-11-15T12:51:03;4.53;;;2.38;;
20138;SDS011;10230;51.502;10.800;2022-11-15T12:53:30;3.00;;;2.30;;
20138;SDS011;10230;51.502;10.800;2022-11-15T12:59:06;3.22;;;2.30;;
20138;SDS011;10230;51.502;10.800;2022-11-15T13:06:43;3.85;;;2.90;;
20138;SDS011;10230;51.502;10.800;2022-11-15T13:11:54;3.28;;;2.50;;
20138;SDS011;10230;51.502;10.800;2022-11-15T13:20:31;3.88;;;3.05;;
20138;SDS011;10230;51.502;10.800;2022-11-15T13:22:47;5.32;;;3.08;;
20138;SDS011;10230;51.502;10.800;2022-11-15T13:27:52;5.43;;;3.25;;
20138;SDS011;10230;51.502;10.800;2022-11-15T13:30:29;6.55;;;3.47;;
20138;SDS011;10230;51.502;10.800;2022-11-15T13:32:55;4.57;;;2.95;;
20138;SDS011;10230;51.502;10.800;2022-11-15T13:35:25;5.07;;;3.30;;
20138;SDS011;10230;51.502;10.800;2022-11-15T13:37:52;4.55;;;2.50;;
20138;SDS011;10230;51.502;10.800;2022-11-15T13:40:25;4.78;;;2.40;;
20138;SDS011;10230;51.502;10.800;2022-11-15T13:42:58;7.22;;;3.20;;
20138;SDS011;10230;51.502;10.800;2022-11-15T13:45:24;5.47;;;3.20;;
20138;SDS011;10230;51.502;10.800;2022-11-15T13:47:55;4.97;;;3.00;;
20138;SDS011;10230;51.502;10.800;2022-11-15T13:50:22;4.30;;;2.28;;
20138;SDS011;10230;51.502;10.800;2022-11-15T13:52:50;3.67;;;2.05;;
20138;SDS011;10230;51.502;10.800;2022-11-15T13:55:21;2.38;;;1.83;;
20138;SDS011;10230;51.502;10.800;2022-11-15T13:57:48;3.78;;;2.30;;
20138;SDS011;10230;51.502;10.800;2022-11-15T14:03:07;2.75;;;1.75;;
20138;SDS011;10230;51.502;10.800;2022-11-15T14:05:34;2.40;;;1.75;;
20138;SDS011;10230;51.502;10.800;2022-11-15T14:08:04;3.25;;;1.77;;
20138;SDS011;10230;51.502;10.800;2022-11-15T14:10:37;3.53;;;2.03;;
20138;SDS011;10230;51.502;10.800;2022-11-15T14:13:04;2.88;;;1.92;;
20138;SDS011;10230;51.502;10.800;2022-11-15T14:15:37;3.15;;;2.10;;
20138;SDS011;10230;51.502;10.800;2022-11-15T14:18:03;3.88;;;1.92;;
20138;SDS011;10230;51.502;10.800;2022-11-15T14:22:58;3.20;;;2.08;;
20138;SDS011;10230;51.502;10.800;2022-11-15T14:25:25;2.90;;;1.77;;
20138;SDS011;10230;51.502;10.800;2022-11-15T14:30:33;4.10;;;1.77;;
20138;SDS011;10230;51.502;10.800;2022-11-15T14:32:59;2.88;;;1.83;;
20138;SDS011;10230;51.502;10.800;2022-11-15T14:35:25;3.78;;;1.90;;
20138;SDS011;10230;51.502;10.800;2022-11-15T14:37:51;5.60;;;2.97;;
20138;SDS011;10230;51.502;10.800;2022-11-15T14:40:18;5.15;;;3.05;;
20138;SDS011;10230;51.502;10.800;2022-11-15T14:42:45;5.38;;;2.78;;
20138;SDS011;10230;51.502;10.800;2022-11-15T14:45:16;3.40;;;2.10;;
20138;SDS011;10230;51.502;10.800;2022-11-15T14:47:42;4.00;;;2.38;;
20138;SDS011;10230;51.502;10.800;2022-11-15T14:50:15;4.68;;;2.63;;
20138;SDS011;10230;51.502;10.800;2022-11-15T14:52:42;6.22;;;3.88;;
20138;SDS011;10230;51.502;10.800;2022-11-15T14:57:53;11.52;;;6.70;;
20138;SDS011;10230;51.502;10.800;2022-11-15T15:00:20;6.95;;;4.22;;
20138;SDS011;10230;51.502;10.800;2022-11-15T15:02:46;4.20;;;2.75;;
20138;SDS011;10230;51.502;10.800;2022-11-15T15:07:38;4.43;;;2.10;;
20138;SDS011;10230;51.502;10.800;2022-11-15T15:10:04;6.40;;;2.33;;
20138;SDS011;10230;51.502;10.800;2022-11-15T15:12:30;4.17;;;2.80;;
20138;SDS011;10230;51.502;10.800;2022-11-15T15:14:56;5.73;;;2.93;;
20138;SDS011;10230;51.502;10.800;2022-11-15T15:17:22;5.10;;;2.90;;
20138;SDS011;10230;51.502;10.800;2022-11-15T15:19:49;4.85;;;3.58;;
20138;SDS011;10230;51.502;10.800;2022-11-15T15:22:15;5.10;;;3.33;;
20138;SDS011;10230;51.502;10.800;2022-11-15T15:24:42;7.10;;;3.40;;
20138;SDS011;10230;51.502;10.800;2022-11-15T15:27:09;3.67;;;2.67;;
20138;SDS011;10230;51.502;10.800;2022-11-15T15:29:35;4.70;;;2.70;;
20138;SDS011;10230;51.502;10.800;2022-11-15T15:32:01;4.05;;;2.78;;
20138;SDS011;10230;51.502;10.800;2022-11-15T15:34:27;13.20;;;3.07;;
20138;SDS011;10230;51.502;10.800;2022-11-15T15:39:38;5.53;;;3.30;;
20138;SDS011;10230;51.502;10.800;2022-11-15T15:42:04;7.67;;;2.40;;
20138;SDS011;10230;51.502;10.800;2022-11-15T15:44:30;6.63;;;2.30;;
20138;SDS011;10230;51.502;10.800;2022-11-15T15:46:56;4.47;;;2.20;;
20138;SDS011;10230;51.502;10.800;2022-11-15T15:49:22;4.30;;;1.93;;
20138;SDS011;10230;51.502;10.800;2022-11-15T15:51:49;4.57;;;2.30;;
20138;SDS011;10230;51.502;10.800;2022-11-15T15:54:15;3.43;;;2.67;;
20138;SDS011;10230;51.502;10.800;2022-11-15T15:56:41;5.40;;;2.90;;
20138;SDS011;10230;51.502;10.800;2022-11-15T15:59:07;3.97;;;2.80;;
20138;SDS011;10230;51.502;10.800;2022-11-15T16:01:33;4.97;;;3.20;;
20138;SDS011;10230;51.502;10.800;2022-11-15T16:03:59;4.27;;;2.80;;
20138;SDS011;10230;51.502;10.800;2022-11-15T16:06:32;4.77;;;2.63;;
20138;SDS011;10230;51.502;10.800;2022-11-15T16:08:59;4.30;;;2.60;;
20138;SDS011;10230;51.502;10.800;2022-11-15T16:11:25;3.97;;;3.03;;
20138;SDS011;10230;51.502;10.800;2022-11-15T16:13:51;4.00;;;2.83;;
20138;SDS011;10230;51.502;10.800;2022-11-15T16:16:17;7.57;;;4.43;;
20138;SDS011;10230;51.502;10.800;2022-11-15T16:18:44;6.90;;;4.03;;
20138;SDS011;10230;51.502;10.800;2022-11-15T16:21:10;6.37;;;3.03;;
20138;SDS011;10230;51.502;10.800;2022-11-15T16:23:36;4.73;;;2.97;;
20138;SDS011;10230;51.502;10.800;2022-11-15T16:26:06;8.23;;;3.53;;
20138;SDS011;10230;51.502;10.800;2022-11-15T16:28:35;3.17;;;2.47;;
20138;SDS011;10230;51.502;10.800;2022-11-15T16:31:05;6.57;;;3.43;;
20138;SDS011;10230;51.502;10.800;2022-11-15T16:33:33;4.50;;;2.70;;
20138;SDS011;10230;51.502;10.800;2022-11-15T16:35:59;5.33;;;3.13;;
20138;SDS011;10230;51.502;10.800;2022-11-15T16:38:25;3.73;;;2.50;;
20138;SDS011;10230;51.502;10.800;2022-11-15T16:40:52;3.33;;;2.57;;
20138;SDS011;10230;51.502;10.800;2022-11-15T16:43:18;5.60;;;2.53;;
20138;SDS011;10230;51.502;10.800;2022-11-15T16:45:44;4.27;;;2.80;;
20138;SDS011;10230;51.502;10.800;2022-11-15T16:48:31;4.73;;;3.10;;
20138;SDS011;10230;51.502;10.800;2022-11-15T16:50:58;5.30;;;2.80;;
20138;SDS011;10230;51.502;10.800;2022-11-15T16:53:24;5.67;;;4.10;;
20138;SDS011;10230;51.502;10.800;2022-11-15T16:55:51;5.63;;;3.50;;
20138;SDS011;10230;51.502;10.800;2022-11-15T16:58:17;6.03;;;3.00;;
20138;SDS011;10230;51.502;10.800;2022-11-15T17:00:43;5.23;;;3.00;;
20138;SDS011;10230;51.502;10.800;2022-11-15T17:03:09;6.23;;;3.17;;
20138;SDS011;10230;51.502;10.800;2022-11-15T17:05:36;6.17;;;3.30;;
20138;SDS011;10230;51.502;10.800;2022-11-15T17:08:02;6.90;;;3.87;;
20138;SDS011;10230;51.502;10.800;2022-11-15T17:10:28;6.23;;;3.77;;